createdAt,value
2018-07-24T00:00:49.485Z,25.02
2018-07-24T00:15:51.376Z,25.01
2018-07-24T00:30:51.075Z,25.02
2018-07-24T00:45:50.521Z,24.98
2018-07-24T01:00:52.730Z,24.96
2018-07-24T01:15:50.805Z,24.94
2018-07-24T01:30:50.982Z,24.92
2018-07-24T01:45:52.943Z,24.90
2018-07-24T02:00:53.649Z,24.93
2018-07-24T02:15:51.048Z,24.86
2018-07-24T02:30:50.366Z,24.86
2018-07-24T02:45:52.820Z,24.86
2018-07-24T03:00:52.268Z,23.68
2018-07-24T03:15:50.483Z,22.45
2018-07-24T03:30:50.940Z,21.75
2018-07-24T03:45:52.933Z,21.31
2018-07-24T04:00:50.974Z,21.03
2018-07-24T04:15:51.116Z,20.90
2018-07-24T04:30:50.210Z,22.86
2018-07-24T04:45:49.668Z,23.66
2018-07-24T05:00:50.995Z,22.58
2018-07-24T05:15:49.822Z,21.79
2018-07-24T05:30:51.692Z,21.43
2018-07-24T05:45:50.731Z,21.36
2018-07-24T06:00:52.531Z,21.34
2018-07-24T06:15:51.537Z,21.67
2018-07-24T06:30:50.907Z,21.79
2018-07-24T06:45:51.424Z,21.85
2018-07-24T07:15:53.587Z,22.86
2018-07-24T07:30:50.322Z,22.73
2018-07-24T07:45:50.236Z,22.79
2018-07-24T08:00:50.535Z,23.14
2018-07-24T08:15:50.456Z,23.60
2018-07-24T08:30:50.935Z,24.08
2018-07-24T08:45:52.869Z,25.00
2018-07-24T09:00:53.580Z,25.62
2018-07-24T09:15:50.958Z,25.82
2018-07-24T09:30:50.350Z,26.23
2018-07-24T09:45:50.379Z,27.08
2018-07-24T10:00:55.423Z,27.35
2018-07-24T10:15:50.245Z,27.17
2018-07-24T10:30:50.714Z,27.35
2018-07-24T10:45:57.415Z,27.36
2018-07-24T11:00:50.911Z,27.89
2018-07-24T11:15:51.441Z,28.93
2018-07-24T11:30:51.282Z,29.42
2018-07-24T11:45:52.189Z,29.58
2018-07-24T12:00:51.229Z,30.01
2018-07-24T12:15:51.137Z,29.17
2018-07-24T12:30:52.706Z,28.85
2018-07-24T12:45:51.281Z,28.10
2018-07-24T13:00:51.544Z,26.89
2018-07-24T13:15:50.292Z,26.05
2018-07-24T13:30:54.782Z,26.09
2018-07-24T13:45:52.392Z,26.18
2018-07-24T14:00:53.068Z,26.27
2018-07-24T14:15:53.259Z,26.31
2018-07-24T14:30:50.987Z,26.43
2018-07-24T14:45:51.396Z,26.78
2018-07-24T15:00:50.958Z,26.93
2018-07-24T15:15:56.218Z,26.88
2018-07-24T15:30:50.899Z,26.69
2018-07-24T15:45:52.956Z,26.49
2018-07-24T16:00:51.301Z,26.11
2018-07-24T16:15:50.664Z,25.96
2018-07-24T16:30:50.923Z,25.21
2018-07-24T16:45:52.843Z,24.55
2018-07-24T17:00:50.890Z,24.16
2018-07-24T17:15:50.982Z,23.88
2018-07-24T17:30:49.899Z,23.67
2018-07-24T17:45:55.620Z,23.50
2018-07-24T18:00:49.937Z,23.31
2018-07-24T18:15:51.908Z,23.10
2018-07-24T18:30:50.739Z,22.96
2018-07-24T18:45:50.775Z,22.80
2018-07-24T19:00:51.243Z,22.64
2018-07-24T19:15:50.804Z,22.48
2018-07-24T19:30:52.225Z,22.40
2018-07-24T19:45:53.281Z,22.38
2018-07-24T20:00:50.199Z,22.34
2018-07-24T20:15:50.390Z,23.88
2018-07-24T20:30:52.533Z,24.79
2018-07-24T20:45:52.645Z,25.14
2018-07-24T21:00:56.626Z,25.34
2018-07-24T21:15:53.548Z,25.42
2018-07-24T21:30:51.743Z,25.43
2018-07-24T21:45:53.391Z,25.43
2018-07-24T22:15:53.293Z,25.37
2018-07-24T22:30:52.633Z,25.38
2018-07-24T22:45:50.596Z,25.39
2018-07-24T23:00:50.646Z,25.37
2018-07-24T23:15:55.036Z,25.32
2018-07-24T23:30:53.136Z,25.32
2018-07-24T23:45:51.113Z,25.33
